createdAt,value
2018-11-10T00:00:18.659Z,94692.12
2018-11-10T00:02:49.711Z,94681.33
2018-11-10T00:05:19.590Z,94675.98
2018-11-10T00:07:49.438Z,94675.63
2018-11-10T00:10:19.439Z,94672.16
2018-11-10T00:12:49.176Z,94674.02
2018-11-10T00:15:18.386Z,94670.08
2018-11-10T00:17:47.586Z,94662.44
2018-11-10T00:20:16.779Z,94656.25
2018-11-10T00:22:45.982Z,94659.17
2018-11-10T00:25:15.663Z,94652.63
2018-11-10T00:27:45.999Z,94657.25
2018-11-10T00:30:17.358Z,94661.78
2018-11-10T00:32:46.973Z,94664.06
2018-11-10T00:35:16.183Z,94663.27
2018-11-10T00:37:45.388Z,94664.33
2018-11-10T00:40:15.638Z,94663.19
2018-11-10T00:42:45.100Z,94658.94
2018-11-10T00:45:14.393Z,94651.56
2018-11-10T00:47:43.599Z,94652.86
2018-11-10T00:50:12.808Z,94645.23
2018-11-10T00:52:42.013Z,94647.01
2018-11-10T00:55:11.207Z,94644.84
2018-11-10T00:57:40.410Z,94645.27
2018-11-10T01:00:11.360Z,94638.50
2018-11-10T01:02:41.173Z,94638.37
2018-11-10T01:05:10.375Z,94635.63
2018-11-10T01:07:39.991Z,94634.89
2018-11-10T01:10:12.047Z,94638.09
2018-11-10T01:12:41.325Z,94638.32
2018-11-10T01:15:13.385Z,94636.02
2018-11-10T01:17:43.091Z,94630.26
2018-11-10T01:20:12.939Z,94625.66
2018-11-10T01:22:42.123Z,94621.36
2018-11-10T01:25:11.976Z,94621.97
2018-11-10T01:27:41.206Z,94626.59
2018-11-10T01:30:13.902Z,94625.69
2018-11-10T01:32:44.074Z,94624.84
2018-11-10T01:35:13.519Z,94625.13
2018-11-10T01:37:42.747Z,94625.55
2018-11-10T01:40:13.346Z,94620.05
2018-11-10T01:42:43.314Z,94623.84
2018-11-10T01:45:14.702Z,94608.52
2018-11-10T01:47:44.342Z,94614.82
2018-11-10T01:50:13.595Z,94612.28
2018-11-10T01:52:43.939Z,94621.83
2018-11-10T01:55:13.341Z,94615.62
2018-11-10T01:57:43.362Z,94606.91
2018-11-10T02:00:16.667Z,94604.86
2018-11-10T02:02:46.470Z,94605.22
2018-11-10T02:05:16.233Z,94606.73
2018-11-10T02:07:45.590Z,94601.95
2018-11-10T02:10:14.870Z,94597.41
2018-11-10T02:12:44.080Z,94601.06
2018-11-10T02:15:15.238Z,94601.54
2018-11-10T02:17:44.443Z,94600.72
2018-11-10T02:20:14.515Z,94605.15
2018-11-10T02:22:43.802Z,94608.09
2018-11-10T02:25:13.355Z,94597.23
2018-11-10T02:27:42.546Z,94592.22
2018-11-10T02:30:12.227Z,94595.45
2018-11-10T02:32:42.898Z,94602.31
2018-11-10T02:35:12.331Z,94596.94
2018-11-10T02:37:41.767Z,94587.38
2018-11-10T02:40:13.066Z,94591.30
2018-11-10T02:42:42.302Z,94590.98
2018-11-10T02:45:12.826Z,94590.90
2018-11-10T02:47:42.449Z,94597.27
2018-11-10T02:50:11.656Z,94593.16
2018-11-10T02:52:40.913Z,94583.59
2018-11-10T02:55:10.889Z,94590.03
2018-11-10T02:57:40.286Z,94589.75
2018-11-10T03:00:11.030Z,94588.07
2018-11-10T03:02:40.423Z,94586.58
2018-11-10T03:05:10.099Z,94587.74
2018-11-10T03:07:39.855Z,94583.44
2018-11-10T03:10:10.375Z,94583.31
2018-11-10T03:12:40.494Z,94580.98
2018-11-10T03:15:10.710Z,94583.33
2018-11-10T03:17:39.953Z,94575.66
2018-11-10T03:20:12.397Z,94577.44
2018-11-10T03:22:41.867Z,94584.52
2018-11-10T03:25:11.514Z,94573.83
2018-11-10T03:27:40.926Z,94574.63
2018-11-10T03:30:10.435Z,94569.94
2018-11-10T03:32:39.639Z,94570.28
2018-11-10T03:35:09.558Z,94572.91
2018-11-10T03:37:40.602Z,94569.30
2018-11-10T03:40:11.489Z,94565.41
2018-11-10T03:42:41.046Z,94557.43
2018-11-10T03:45:11.662Z,94562.99
2018-11-10T03:50:41.067Z,94554.27
2018-11-10T03:53:10.348Z,94558.76
2018-11-10T03:55:39.547Z,94556.51
2018-11-10T03:58:08.772Z,94551.25
2018-11-10T04:00:37.978Z,94557.81
2018-11-10T04:03:07.182Z,94558.53
2018-11-10T04:05:36.392Z,94555.44
2018-11-10T04:08:05.947Z,94555.88
2018-11-10T04:10:35.147Z,94555.24
2018-11-10T04:13:04.370Z,94549.77
2018-11-10T04:15:33.589Z,94542.16
2018-11-10T04:18:02.799Z,94543.31
2018-11-10T04:20:32.002Z,94543.48
2018-11-10T04:23:01.215Z,94543.37
2018-11-10T04:25:30.430Z,94545.68
2018-11-10T04:27:59.636Z,94541.23
2018-11-10T04:30:28.861Z,94539.20
2018-11-10T04:32:58.091Z,94535.45
2018-11-10T04:35:27.306Z,94534.66
2018-11-10T04:37:56.595Z,94529.21
2018-11-10T04:40:25.815Z,94529.95
2018-11-10T04:42:54.988Z,94533.64
2018-11-10T04:45:24.198Z,94531.80
2018-11-10T04:47:53.408Z,94530.23
2018-11-10T04:50:22.610Z,94526.77
2018-11-10T04:52:51.807Z,94530.31
2018-11-10T04:55:21.015Z,94521.63
2018-11-10T04:57:50.211Z,94530.23
2018-11-10T05:00:19.415Z,94531.55
2018-11-10T05:02:48.615Z,94532.30
2018-11-10T05:05:17.815Z,94531.19
2018-11-10T05:07:47.023Z,94541.38
2018-11-10T05:10:16.214Z,94539.86
2018-11-10T05:12:45.426Z,94534.89
2018-11-10T05:15:14.794Z,94535.23
2018-11-10T05:17:43.993Z,94532.09
2018-11-10T05:20:13.486Z,94530.53
2018-11-10T05:22:42.667Z,94530.06
2018-11-10T05:25:11.991Z,94528.27
2018-11-10T05:27:41.417Z,94533.53
2018-11-10T05:30:11.111Z,94533.11
2018-11-10T05:32:40.367Z,94533.73
2018-11-10T05:35:09.726Z,94531.57
2018-11-10T05:37:38.983Z,94532.78
2018-11-10T05:40:09.915Z,94535.15
2018-11-10T05:42:39.210Z,94538.84
2018-11-10T05:45:08.584Z,94531.61
2018-11-10T05:47:37.862Z,94531.69
2018-11-10T05:50:07.662Z,94523.05
2018-11-10T05:52:36.855Z,94532.71
2018-11-10T05:55:07.126Z,94529.88
2018-11-10T05:57:36.303Z,94526.53
2018-11-10T06:00:08.538Z,94523.66
2018-11-10T06:02:37.908Z,94531.03
2018-11-10T06:05:07.085Z,94525.98
2018-11-10T06:07:36.286Z,94530.41
2018-11-10T06:10:06.917Z,94527.28
2018-11-10T06:12:35.986Z,94524.56
2018-11-10T06:15:06.203Z,94523.58
2018-11-10T06:17:35.403Z,94527.42
2018-11-10T06:20:05.510Z,94521.40
2018-11-10T06:22:34.690Z,94517.19
2018-11-10T06:25:03.904Z,94517.10
2018-11-10T06:27:33.147Z,94516.49
2018-11-10T06:30:02.385Z,94516.31
2018-11-10T06:35:15.375Z,94519.75
2018-11-10T06:37:44.586Z,94512.35
2018-11-10T06:40:14.549Z,94512.55
2018-11-10T06:42:44.270Z,94510.60
2018-11-10T06:45:14.503Z,94508.25
2018-11-10T06:47:43.697Z,94500.75
2018-11-10T06:50:13.123Z,94507.82
2018-11-10T06:52:42.359Z,94498.66
2018-11-10T06:55:11.920Z,94499.77
2018-11-10T06:57:41.138Z,94501.22
2018-11-10T07:00:12.860Z,94504.95
2018-11-10T07:02:42.480Z,94499.23
2018-11-10T07:05:12.320Z,94504.11
2018-11-10T07:07:41.712Z,94498.44
2018-11-10T07:10:11.567Z,94496.83
2018-11-10T07:12:40.775Z,94496.09
2018-11-10T07:15:10.369Z,94497.09
2018-11-10T07:17:39.636Z,94489.65
2018-11-10T07:20:08.843Z,94494.73
2018-11-10T07:22:38.051Z,94494.05
2018-11-10T07:25:07.619Z,94500.92
2018-11-10T07:27:36.762Z,94502.68
2018-11-10T07:30:09.153Z,94503.94
2018-11-10T07:32:38.365Z,94499.63
2018-11-10T07:35:08.543Z,94507.98
2018-11-10T07:37:37.854Z,94503.16
2018-11-10T07:40:09.499Z,94497.47
2018-11-10T07:42:38.714Z,94501.95
2018-11-10T07:45:09.822Z,94494.48
2018-11-10T07:47:39.023Z,94492.41
2018-11-10T07:50:08.994Z,94488.05
2018-11-10T07:52:38.617Z,94483.55
2018-11-10T07:55:09.025Z,94478.08
2018-11-10T07:57:38.221Z,94477.16
2018-11-10T08:00:12.807Z,94477.01
2018-11-10T08:02:42.285Z,94475.16
2018-11-10T08:05:12.185Z,94470.44
2018-11-10T08:07:42.150Z,94475.80
2018-11-10T08:10:12.035Z,94462.67
2018-11-10T08:12:41.223Z,94464.55
2018-11-10T08:15:13.635Z,94461.52
2018-11-10T08:17:42.853Z,94453.00
2018-11-10T08:20:12.631Z,94452.92
2018-11-10T08:22:41.840Z,94456.91
2018-11-10T08:25:13.094Z,94451.51
2018-11-10T08:27:42.466Z,94454.55
2018-11-10T08:30:13.109Z,94449.57
2018-11-10T08:32:42.725Z,94439.44
2018-11-10T08:35:12.845Z,94442.77
2018-11-10T08:37:42.069Z,94447.86
2018-11-10T08:40:15.856Z,94443.88
2018-11-10T08:42:45.050Z,94445.67
2018-11-10T08:45:14.984Z,94446.88
2018-11-10T08:47:44.807Z,94440.97
2018-11-10T08:50:15.082Z,94433.91
2018-11-10T08:52:44.298Z,94440.36
2018-11-10T08:55:14.054Z,94443.20
2018-11-10T08:57:43.720Z,94437.99
2018-11-10T09:00:13.151Z,94439.76
2018-11-10T09:02:42.348Z,94436.71
2018-11-10T09:05:12.319Z,94436.59
2018-11-10T09:07:41.720Z,94434.49
2018-11-10T09:10:12.605Z,94438.34
2018-11-10T09:12:42.016Z,94433.83
2018-11-10T09:15:13.311Z,94426.56
2018-11-10T09:17:42.644Z,94427.25
2018-11-10T09:20:13.423Z,94423.91
2018-11-10T09:22:43.067Z,94418.30
2018-11-10T09:25:13.633Z,94418.07
2018-11-10T09:27:42.869Z,94413.83
2018-11-10T09:30:13.464Z,94415.11
2018-11-10T09:32:42.930Z,94415.19
2018-11-10T09:35:13.082Z,94412.44
2018-11-10T09:37:42.304Z,94406.06
2018-11-10T09:40:14.468Z,94399.48
2018-11-10T09:42:43.932Z,94403.07
2018-11-10T09:45:14.115Z,94402.66
2018-11-10T09:47:43.344Z,94400.98
2018-11-10T09:50:15.304Z,94405.86
2018-11-10T09:52:44.886Z,94401.27
2018-11-10T09:55:14.790Z,94399.32
2018-11-10T09:57:43.998Z,94397.00
2018-11-10T10:00:16.034Z,94392.45
2018-11-10T10:02:45.533Z,94388.88
2018-11-10T10:05:14.558Z,94385.75
2018-11-10T10:07:44.973Z,94387.09
2018-11-10T10:10:16.813Z,94386.48
2018-11-10T10:12:46.310Z,94377.03
2018-11-10T10:15:16.755Z,94384.39
2018-11-10T10:17:46.374Z,94384.68
2018-11-10T10:20:17.419Z,94369.09
2018-11-10T10:22:47.506Z,94371.42
2018-11-10T10:25:17.438Z,94367.30
2018-11-10T10:27:47.514Z,94360.94
2018-11-10T10:30:18.367Z,94352.61
2018-11-10T10:32:48.538Z,94348.45
2018-11-10T10:35:17.933Z,94344.31
2018-11-10T10:37:47.763Z,94338.64
2018-11-10T10:40:18.548Z,94336.59
2018-11-10T10:42:49.672Z,94326.67
2018-11-10T10:45:21.912Z,94324.85
2018-11-10T10:47:51.113Z,94317.34
2018-11-10T10:50:21.391Z,94317.24
2018-11-10T10:52:50.592Z,94314.16
2018-11-10T10:55:20.327Z,94306.63
2018-11-10T10:57:50.309Z,94303.16
2018-11-10T11:00:24.894Z,94300.70
2018-11-10T11:02:56.166Z,94296.44
2018-11-10T11:05:30.658Z,94297.01
2018-11-10T11:07:59.872Z,94287.63
2018-11-10T11:10:29.110Z,94288.95
2018-11-10T11:12:58.310Z,94278.69
2018-11-10T11:15:27.625Z,94278.25
2018-11-10T11:17:56.734Z,94268.86
2018-11-10T11:20:25.946Z,94272.59
2018-11-10T11:22:55.207Z,94273.40
2018-11-10T11:25:24.437Z,94274.23
2018-11-10T11:27:53.731Z,94277.19
2018-11-10T11:30:23.049Z,94269.24
2018-11-10T11:32:52.322Z,94268.70
2018-11-10T11:35:21.580Z,94269.45
2018-11-10T11:37:50.796Z,94265.27
2018-11-10T11:40:19.911Z,94263.45
2018-11-10T11:42:49.113Z,94263.73
2018-11-10T11:45:18.304Z,94260.73
2018-11-10T11:47:47.487Z,94257.15
2018-11-10T11:50:17.084Z,94258.58
2018-11-10T11:52:46.634Z,94246.72
2018-11-10T11:55:16.149Z,94251.12
2018-11-10T11:57:45.405Z,94251.16
2018-11-10T12:00:15.879Z,94250.78
2018-11-10T12:02:45.989Z,94250.38
2018-11-10T12:05:17.199Z,94254.15
2018-11-10T12:07:46.922Z,94252.16
2018-11-10T12:10:16.939Z,94251.92
2018-11-10T12:12:46.399Z,94260.57
2018-11-10T12:15:16.674Z,94247.23
2018-11-10T12:17:45.800Z,94244.49
2018-11-10T12:20:16.027Z,94245.86
2018-11-10T12:22:45.240Z,94240.70
2018-11-10T12:25:14.914Z,94240.59
2018-11-10T12:27:44.614Z,94246.61
2018-11-10T12:30:13.922Z,94241.95
2018-11-10T12:32:43.993Z,94245.72
2018-11-10T12:35:14.098Z,94239.12
2018-11-10T12:37:43.535Z,94248.45
2018-11-10T12:40:13.711Z,94247.28
2018-11-10T12:42:43.194Z,94248.84
2018-11-10T12:45:13.421Z,94251.14
2018-11-10T12:47:43.177Z,94255.48
2018-11-10T12:50:13.580Z,94250.84
2018-11-10T12:52:43.644Z,94258.12
2018-11-10T12:55:14.207Z,94255.98
2018-11-10T12:57:44.055Z,94253.18
2018-11-10T13:00:14.588Z,94253.97
2018-11-10T13:02:44.141Z,94258.48
2018-11-10T13:05:13.681Z,94248.83
2018-11-10T13:07:44.522Z,94252.59
2018-11-10T13:10:13.710Z,94248.61
2018-11-10T13:12:43.842Z,94257.31
2018-11-10T13:15:13.065Z,94254.55
2018-11-10T13:17:42.297Z,94256.23
2018-11-10T13:20:13.463Z,94249.42
2018-11-10T13:22:42.703Z,94251.64
2018-11-10T13:25:12.799Z,94256.89
2018-11-10T13:27:42.033Z,94256.60
2018-11-10T13:30:13.124Z,94259.63
2018-11-10T13:32:42.315Z,94256.52
2018-11-10T13:35:11.835Z,94257.84
2018-11-10T13:37:41.027Z,94260.00
2018-11-10T13:40:10.694Z,94268.00
2018-11-10T13:42:39.884Z,94270.77
2018-11-10T13:45:11.234Z,94275.17
2018-11-10T13:47:40.424Z,94271.87
2018-11-10T13:50:11.091Z,94275.35
2018-11-10T13:52:41.482Z,94276.11
2018-11-10T13:55:10.594Z,94267.94
2018-11-10T13:57:40.051Z,94270.63
2018-11-10T14:00:13.410Z,94275.77
2018-11-10T14:02:42.802Z,94279.36
2018-11-10T14:05:12.574Z,94273.00
2018-11-10T14:07:41.839Z,94269.98
2018-11-10T14:10:13.459Z,94269.77
2018-11-10T14:12:43.568Z,94270.24
2018-11-10T14:15:12.740Z,94275.66
2018-11-10T14:17:42.563Z,94273.36
2018-11-10T14:20:13.799Z,94273.50
2018-11-10T14:22:43.169Z,94274.58
2018-11-10T14:25:13.522Z,94276.02
2018-11-10T14:27:43.407Z,94280.91
2018-11-10T14:30:14.466Z,94289.75
2018-11-10T14:32:44.122Z,94287.44
2018-11-10T14:35:13.642Z,94288.38
2018-11-10T14:37:42.860Z,94284.58
2018-11-10T14:40:13.523Z,94292.00
2018-11-10T14:42:43.273Z,94294.15
2018-11-10T14:45:13.754Z,94307.74
2018-11-10T14:47:43.508Z,94305.84
2018-11-10T14:50:13.559Z,94314.38
2018-11-10T14:52:43.167Z,94314.40
2018-11-10T14:55:12.882Z,94314.20
2018-11-10T14:57:42.419Z,94318.27
2018-11-10T15:00:16.253Z,94329.17
2018-11-10T15:02:45.463Z,94329.36
2018-11-10T15:05:14.866Z,94334.52
2018-11-10T15:07:44.538Z,94335.22
2018-11-10T15:10:14.990Z,94338.22
2018-11-10T15:12:44.802Z,94338.48
2018-11-10T15:15:14.963Z,94340.39
2018-11-10T15:17:44.501Z,94336.97
2018-11-10T15:20:15.023Z,94339.02
2018-11-10T15:22:44.316Z,94341.92
2018-11-10T15:25:14.926Z,94345.59
2018-11-10T15:27:44.056Z,94349.49
2018-11-10T15:30:14.857Z,94345.42
2018-11-10T15:32:44.984Z,94353.27
2018-11-10T15:35:15.354Z,94350.85
2018-11-10T15:37:45.955Z,94351.45
2018-11-10T15:40:15.805Z,94354.05
2018-11-10T15:42:45.056Z,94360.41
2018-11-10T15:45:15.071Z,94358.56
2018-11-10T15:47:44.575Z,94363.47
2018-11-10T15:50:15.037Z,94367.87
2018-11-10T15:52:44.218Z,94371.13
2018-11-10T15:55:13.895Z,94375.32
2018-11-10T15:57:43.518Z,94370.49
2018-11-10T16:00:15.314Z,94370.51
2018-11-10T16:02:44.633Z,94371.69
2018-11-10T16:05:14.476Z,94360.44
2018-11-10T16:07:43.671Z,94371.21
2018-11-10T16:10:13.016Z,94366.95
2018-11-10T16:12:42.505Z,94371.92
2018-11-10T16:15:14.039Z,94372.55
2018-11-10T16:17:43.370Z,94369.41
2018-11-10T16:20:17.075Z,94369.84
2018-11-10T16:22:47.723Z,94368.45
2018-11-10T16:25:17.363Z,94373.06
2018-11-10T16:27:46.866Z,94376.51
2018-11-10T16:30:17.275Z,94376.37
2018-11-10T16:32:46.872Z,94383.23
2018-11-10T16:35:16.130Z,94382.00
2018-11-10T16:37:45.343Z,94382.55
2018-11-10T16:40:16.453Z,94382.77
2018-11-10T16:42:46.543Z,94387.08
2018-11-10T16:45:16.482Z,94378.42
2018-11-10T16:47:45.700Z,94379.72
2018-11-10T16:50:14.970Z,94380.12
2018-11-10T16:52:44.886Z,94382.05
2018-11-10T16:55:14.181Z,94375.81
2018-11-10T16:57:43.310Z,94381.59
2018-11-10T17:00:15.771Z,94383.57
2018-11-10T17:02:45.017Z,94376.63
2018-11-10T17:05:14.242Z,94376.97
2018-11-10T17:07:43.468Z,94373.08
2018-11-10T17:10:14.057Z,94374.22
2018-11-10T17:12:43.363Z,94377.33
2018-11-10T17:15:12.642Z,94378.95
2018-11-10T17:17:41.860Z,94385.30
2018-11-10T17:20:13.609Z,94388.09
2018-11-10T17:22:42.845Z,94388.91
2018-11-10T17:25:12.651Z,94384.02
2018-11-10T17:27:42.334Z,94380.77
2018-11-10T17:30:19.223Z,94373.43
2018-11-10T17:32:48.292Z,94376.34
2018-11-10T17:35:17.619Z,94370.96
2018-11-10T17:37:46.874Z,94376.51
2018-11-10T17:40:16.486Z,94371.60
2018-11-10T17:42:45.630Z,94366.41
2018-11-10T17:45:16.234Z,94360.00
2018-11-10T17:47:45.658Z,94359.50
2018-11-10T17:50:16.312Z,94363.24
2018-11-10T17:52:45.607Z,94363.55
2018-11-10T17:55:15.825Z,94363.86
2018-11-10T17:57:46.791Z,94357.00
2018-11-10T18:00:15.990Z,94349.70
2018-11-10T18:02:45.228Z,94355.69
2018-11-10T18:05:15.479Z,94362.67
2018-11-10T18:07:44.910Z,94356.17
2018-11-10T18:10:16.863Z,94366.42
2018-11-10T18:12:46.516Z,94362.83
2018-11-10T18:15:16.006Z,94360.06
2018-11-10T18:17:45.540Z,94356.28
2018-11-10T18:20:16.032Z,94359.84
2018-11-10T18:22:45.554Z,94358.20
2018-11-10T18:25:14.906Z,94353.59
2018-11-10T18:27:44.117Z,94358.94
2018-11-10T18:30:14.470Z,94361.82
2018-11-10T18:32:44.265Z,94364.70
2018-11-10T18:35:14.895Z,94355.91
2018-11-10T18:37:44.175Z,94356.04
2018-11-10T18:40:13.401Z,94358.13
2018-11-10T18:42:42.625Z,94358.47
2018-11-10T18:45:12.535Z,94360.77
2018-11-10T18:47:42.191Z,94360.77
2018-11-10T18:50:14.016Z,94359.87
2018-11-10T18:52:43.418Z,94356.88
2018-11-10T18:55:13.340Z,94372.81
2018-11-10T18:57:42.859Z,94364.50
2018-11-10T19:00:14.068Z,94367.31
2018-11-10T19:02:43.434Z,94367.58
2018-11-10T19:05:13.935Z,94372.77
2018-11-10T19:07:43.231Z,94381.39
2018-11-10T19:10:13.770Z,94377.80
2018-11-10T19:12:43.341Z,94377.97
2018-11-10T19:15:16.636Z,94373.25
2018-11-10T19:17:45.830Z,94377.23
2018-11-10T19:20:15.624Z,94376.54
2018-11-10T19:22:44.842Z,94375.84
2018-11-10T19:25:14.664Z,94382.25
2018-11-10T19:27:44.122Z,94384.08
2018-11-10T19:30:15.106Z,94383.65
2018-11-10T19:32:44.878Z,94383.47
2018-11-10T19:35:14.566Z,94385.59
2018-11-10T19:37:43.995Z,94378.36
2018-11-10T19:40:13.293Z,94385.45
2018-11-10T19:42:44.745Z,94391.34
2018-11-10T19:45:14.106Z,94398.03
2018-11-10T19:47:44.325Z,94393.17
2018-11-10T19:50:14.278Z,94392.48
2018-11-10T19:52:43.763Z,94395.33
2018-11-10T19:55:15.158Z,94396.39
2018-11-10T19:57:44.518Z,94401.30
2018-11-10T20:00:18.546Z,94395.45
2018-11-10T20:02:47.968Z,94405.39
2018-11-10T20:05:17.610Z,94401.81
2018-11-10T20:07:46.938Z,94401.48
2018-11-10T20:10:16.222Z,94406.87
2018-11-10T20:12:45.846Z,94410.14
2018-11-10T20:15:15.819Z,94408.99
2018-11-10T20:17:45.360Z,94411.81
2018-11-10T20:20:15.846Z,94412.63
2018-11-10T20:22:45.267Z,94416.69
2018-11-10T20:25:15.811Z,94416.56
2018-11-10T20:27:44.994Z,94422.56
2018-11-10T20:30:16.934Z,94421.45
2018-11-10T20:32:46.289Z,94426.48
2018-11-10T20:35:15.483Z,94419.17
2018-11-10T20:37:45.258Z,94424.69
2018-11-10T20:40:15.209Z,94419.17
2018-11-10T20:42:44.481Z,94430.81
2018-11-10T20:45:17.037Z,94424.80
2018-11-10T20:47:46.249Z,94427.38
2018-11-10T20:50:15.788Z,94426.38
2018-11-10T20:52:45.004Z,94440.02
2018-11-10T20:55:14.558Z,94437.08
2018-11-10T20:57:43.751Z,94434.79
2018-11-10T21:00:14.965Z,94433.16
2018-11-10T21:02:44.532Z,94436.55
2018-11-10T21:05:14.412Z,94435.44
2018-11-10T21:07:43.645Z,94427.19
2018-11-10T21:10:14.861Z,94429.63
2018-11-10T21:12:44.925Z,94424.58
2018-11-10T21:15:14.534Z,94432.76
2018-11-10T21:17:43.863Z,94439.36
2018-11-10T21:20:13.471Z,94442.16
2018-11-10T21:22:42.995Z,94441.28
2018-11-10T21:25:14.143Z,94438.26
2018-11-10T21:27:43.578Z,94439.55
2018-11-10T21:30:14.506Z,94437.39
2018-11-10T21:32:45.363Z,94444.31
2018-11-10T21:35:14.685Z,94450.82
2018-11-10T21:37:43.793Z,94446.38
2018-11-10T21:40:14.545Z,94449.59
2018-11-10T21:42:44.120Z,94447.41
2018-11-10T21:45:14.204Z,94446.06
2018-11-10T21:47:43.606Z,94444.78
2018-11-10T21:50:14.971Z,94441.49
2018-11-10T21:52:44.792Z,94440.84
2018-11-10T21:55:16.179Z,94432.70
2018-11-10T21:57:45.894Z,94439.83
2018-11-10T22:00:17.303Z,94438.69
2018-11-10T22:02:46.920Z,94435.50
2018-11-10T22:05:16.034Z,94440.64
2018-11-10T22:07:45.299Z,94435.72
2018-11-10T22:10:16.658Z,94436.20
2018-11-10T22:12:46.175Z,94438.92
2018-11-10T22:15:17.699Z,94445.52
2018-11-10T22:17:47.078Z,94437.07
2018-11-10T22:20:18.686Z,94438.89
2018-11-10T22:22:47.944Z,94437.91
2018-11-10T22:25:47.375Z,94439.50
2018-11-10T22:28:17.559Z,94425.52
2018-11-10T22:30:46.813Z,94427.67
2018-11-10T22:33:16.020Z,94437.55
2018-11-10T22:35:45.298Z,94421.77
2018-11-10T22:38:14.507Z,94423.41
2018-11-10T22:40:43.725Z,94426.99
2018-11-10T22:43:12.919Z,94429.90
2018-11-10T22:45:42.119Z,94426.99
2018-11-10T22:48:11.317Z,94432.99
2018-11-10T22:50:40.530Z,94431.70
2018-11-10T22:53:09.717Z,94432.81
2018-11-10T22:55:38.923Z,94437.21
2018-11-10T22:58:08.154Z,94424.06
2018-11-10T23:00:41.760Z,94420.20
2018-11-10T23:03:11.015Z,94429.14
2018-11-10T23:05:40.490Z,94428.33
2018-11-10T23:08:09.699Z,94434.54
2018-11-10T23:10:38.913Z,94424.10
2018-11-10T23:13:08.128Z,94430.57
2018-11-10T23:15:37.319Z,94415.66
2018-11-10T23:18:06.517Z,94415.94
2018-11-10T23:20:35.739Z,94415.41
2018-11-10T23:23:05.627Z,94418.44
2018-11-10T23:25:34.855Z,94420.70
2018-11-10T23:28:04.070Z,94415.81
2018-11-10T23:30:33.284Z,94411.54
2018-11-10T23:33:02.473Z,94417.53
2018-11-10T23:35:31.688Z,94412.60
2018-11-10T23:38:00.952Z,94422.53
2018-11-10T23:40:30.171Z,94419.59
2018-11-10T23:42:59.366Z,94417.50
2018-11-10T23:45:28.587Z,94417.02
2018-11-10T23:47:57.770Z,94422.91
2018-11-10T23:50:26.974Z,94413.42
2018-11-10T23:52:56.193Z,94418.32
2018-11-10T23:55:25.411Z,94420.98
2018-11-10T23:57:54.626Z,94418.86
